Time;durP1;ratioP1;P1;durP2;ratioP2;P2;SDS_P1;SDS_P2;PMS_P1;PMS_P2;Temp;Humidity;BMP_temperature;BMP_pressure;BME280_temperature;BME280_humidity;BME280_pressure;Samples;Min_cycle;Max_cycle;Signal;HPM_P1;HPM_P2
2023/10/24 00:00:54;;;;;;;36.38;34.38;;;;;;;11.15;100.00;101177.16;5079249;28;20082;-76
2023/10/24 00:03:24;;;;;;;31.65;29.75;;;;;;;10.76;100.00;101182.06;5069039;28;20135;-75
2023/10/24 00:05:51;;;;;;;34.15;32.15;;;;;;;11.00;100.00;101177.28;5076529;28;20296;-79
2023/10/24 00:08:18;;;;;;;29.30;27.50;;;;;;;11.12;100.00;101170.38;5081709;28;20489;-77
2023/10/24 00:10:45;;;;;;;26.33;24.63;;;;;;;10.93;100.00;101160.50;5076842;28;20131;-76
2023/10/24 00:13:12;;;;;;;31.40;29.50;;;;;;;10.96;100.00;101154.78;5076557;28;20172;-75
2023/10/24 00:15:39;;;;;;;33.38;31.27;;;;;;;11.21;100.00;101152.44;5069497;28;20056;-79
2023/10/24 00:18:07;;;;;;;31.73;29.65;;;;;;;11.30;100.00;101151.22;5073937;28;20041;-77
2023/10/24 00:20:34;;;;;;;26.25;24.65;;;;;;;11.30;100.00;101156.56;5079873;28;20048;-75
2023/10/24 00:23:01;;;;;;;31.30;29.50;;;;;;;11.40;100.00;101148.19;5084374;28;20059;-75
2023/10/24 00:25:45;;;;;;;39.20;37.20;;;;;;;11.28;100.00;101136.50;5081933;28;20056;-76
2023/10/24 00:28:12;;;;;;;28.38;26.67;;;;;;;10.98;100.00;101144.75;5078990;28;20078;-77
2023/10/24 00:30:39;;;;;;;30.00;28.30;;;;;;;10.99;100.00;101141.09;5084049;28;20059;-76
2023/10/24 00:33:18;;;;;;;29.60;27.90;;;;;;;10.85;100.00;101142.06;5086520;28;20522;-78
2023/10/24 00:35:45;;;;;;;30.55;28.77;;;;;;;10.97;100.00;101143.94;5081169;28;20044;-76
2023/10/24 00:38:12;;;;;;;29.13;27.42;;;;;;;10.96;100.00;101141.50;5079607;28;20056;-77
2023/10/24 00:40:40;;;;;;;30.20;28.48;;;;;;;10.81;100.00;101151.44;5084964;28;20044;-77
2023/10/24 00:43:12;;;;;;;34.65;32.95;;;;;;;10.68;100.00;101138.88;5076700;28;20048;-77
2023/10/24 00:45:42;;;;;;;28.92;27.33;;;;;;;10.70;100.00;101139.53;5075422;28;20055;-78
2023/10/24 00:48:11;;;;;;;28.50;26.80;;;;;;;10.98;100.00;101132.31;5088367;28;20519;-79
2023/10/24 00:50:39;;;;;;;30.58;28.67;;;;;;;11.08;100.00;101128.47;5087214;28;20123;-77
2023/10/24 00:53:06;;;;;;;34.30;32.50;;;;;;;10.89;100.00;101132.66;5080518;28;20036;-76
2023/10/24 00:55:36;;;;;;;40.45;38.20;;;;;;;10.73;100.00;101134.63;5083709;28;20052;-78
2023/10/24 00:58:03;;;;;;;34.65;32.65;;;;;;;10.77;100.00;101130.59;5076050;28;20069;-76
2023/10/24 01:00:56;;;;;;;34.63;32.72;;;;;;;10.61;100.00;101130.88;5077667;28;20052;-77
2023/10/24 01:03:23;;;;;;;37.95;36.00;;;;;;;10.55;100.00;101134.31;5079929;28;20049;-76
2023/10/24 01:05:55;;;;;;;31.30;29.70;;;;;;;10.68;100.00;101134.44;5072215;28;20059;-76
2023/10/24 01:08:22;;;;;;;32.37;30.57;;;;;;;10.72;100.00;101135.66;5092509;28;20040;-75
2023/10/24 01:10:57;;;;;;;30.30;28.60;;;;;;;10.69;100.00;101140.56;5085433;28;20307;-77
2023/10/24 01:13:49;;;;;;;25.92;24.33;;;;;;;10.47;100.00;101135.31;5073600;28;20044;-78
2023/10/24 01:16:18;;;;;;;29.52;27.92;;;;;;;10.35;100.00;101144.00;5086374;28;20059;-76
2023/10/24 01:18:45;;;;;;;31.25;29.65;;;;;;;10.34;100.00;101147.69;5084212;28;20044;-77
2023/10/24 01:21:14;;;;;;;30.45;28.85;;;;;;;10.37;100.00;101140.13;5078968;28;20124;-77
2023/10/24 01:23:55;;;;;;;34.30;32.50;;;;;;;10.50;100.00;101137.59;5078915;28;20051;-79
2023/10/24 01:26:28;;;;;;;31.10;29.35;;;;;;;10.38;100.00;101149.75;5072392;28;20405;-76
2023/10/24 01:29:14;;;;;;;34.00;32.38;;;;;;;10.30;100.00;101139.28;5072580;28;20055;-78
2023/10/24 01:31:41;;;;;;;35.45;33.95;;;;;;;10.49;100.00;101146.53;5071680;28;20447;-76
2023/10/24 01:34:23;;;;;;;33.70;31.90;;;;;;;10.38;100.00;101146.25;5072049;28;20052;-77
2023/10/24 01:37:00;;;;;;;31.27;29.58;;;;;;;10.54;100.00;101148.63;5083362;28;20055;-76
2023/10/24 01:39:30;;;;;;;30.00;28.40;;;;;;;10.44;100.00;101146.34;5098598;28;20762;-77
2023/10/24 01:42:11;;;;;;;32.22;30.52;;;;;;;10.17;100.00;101153.25;5079814;28;20512;-78
2023/10/24 01:44:47;;;;;;;31.15;29.45;;;;;;;10.12;100.00;101158.31;5077548;28;20055;-78
2023/10/24 01:47:14;;;;;;;34.97;33.17;;;;;;;9.96;100.00;101169.22;5090271;28;20465;-75
2023/10/24 01:49:41;;;;;;;34.65;32.85;;;;;;;10.16;100.00;101156.91;5091684;28;20050;-78
2023/10/24 01:52:16;;;;;;;33.80;31.90;;;;;;;10.34;100.00;101164.41;5079203;28;20051;-79
2023/10/24 01:54:44;;;;;;;31.95;30.25;;;;;;;9.99;100.00;101164.34;5080650;28;20519;-77
2023/10/24 01:57:11;;;;;;;30.55;28.85;;;;;;;10.20;100.00;101160.03;5077971;28;20439;-77
2023/10/24 01:59:38;;;;;;;30.42;28.63;;;;;;;10.30;100.00;101164.00;5077770;28;20048;-77
2023/10/24 02:02:06;;;;;;;35.25;33.35;;;;;;;10.28;100.00;101157.22;5087867;28;20036;-77
2023/10/24 02:04:33;;;;;;;41.22;39.22;;;;;;;10.29;100.00;101151.75;5086590;28;20045;-77
2023/10/24 02:07:07;;;;;;;46.63;44.33;;;;;;;10.21;100.00;101151.84;5075908;28;20040;-76
2023/10/24 02:09:34;;;;;;;41.78;39.58;;;;;;;10.15;100.00;101151.81;5076268;28;20542;-77
2023/10/24 02:12:08;;;;;;;43.10;41.13;;;;;;;10.22;100.00;101150.81;5079126;28;20051;-76
2023/10/24 02:14:35;;;;;;;45.58;43.58;;;;;;;10.23;100.00;101152.47;5084255;28;20131;-77
2023/10/24 02:17:02;;;;;;;38.42;36.72;;;;;;;10.15;100.00;101154.47;5076031;28;20522;-78
2023/10/24 02:19:29;;;;;;;42.05;39.95;;;;;;;9.96;100.00;101154.09;5084353;28;20056;-76
2023/10/24 02:22:02;;;;;;;44.08;41.97;;;;;;;9.97;100.00;101158.38;5085080;28;20055;-78
2023/10/24 02:24:28;;;;;;;35.35;33.45;;;;;;;9.98;100.00;101161.84;5080484;28;20079;-74
2023/10/24 02:26:57;;;;;;;32.38;30.67;;;;;;;10.01;100.00;101161.47;5088677;28;20044;-78
2023/10/24 02:29:34;;;;;;;29.95;28.35;;;;;;;9.89;100.00;101152.38;5088844;28;20055;-75
2023/10/24 02:32:07;;;;;;;35.97;34.17;;;;;;;9.99;100.00;101155.56;5089135;28;20502;-78
2023/10/24 02:34:34;;;;;;;37.35;35.65;;;;;;;9.74;100.00;101158.59;5092575;28;20469;-77
2023/10/24 02:37:08;;;;;;;30.98;29.38;;;;;;;9.95;100.00;101157.75;5108392;28;20135;-76
2023/10/24 02:39:34;;;;;;;30.35;28.65;;;;;;;9.90;100.00;101165.47;5074880;28;20044;-77
2023/10/24 02:42:13;;;;;;;32.95;31.15;;;;;;;10.05;100.00;101171.53;5080032;28;20059;-78
2023/10/24 02:44:50;;;;;;;31.90;30.23;;;;;;;10.04;100.00;101169.06;5074908;28;20063;-76
2023/10/24 02:47:17;;;;;;;31.13;29.45;;;;;;;10.30;100.00;101166.66;5074363;28;20051;-75
2023/10/24 02:49:53;;;;;;;29.58;27.88;;;;;;;10.21;100.00;101169.63;5080394;28;20115;-77
2023/10/24 02:52:23;;;;;;;29.48;27.77;;;;;;;10.23;100.00;101163.09;5091226;28;20044;-78
2023/10/24 02:55:19;;;;;;;32.72;30.88;;;;;;;10.19;100.00;101171.63;5105280;28;20071;-78
2023/10/24 02:57:46;;;;;;;37.38;35.47;;;;;;;10.25;100.00;101173.50;5073490;28;20051;-77
2023/10/24 03:00:16;;;;;;;33.50;31.60;;;;;;;10.09;100.00;101169.31;5076542;28;20047;-76
2023/10/24 03:02:49;;;;;;;34.72;32.83;;;;;;;10.11;100.00;101182.41;5078568;28;20051;-77
2023/10/24 03:05:16;;;;;;;31.25;29.55;;;;;;;10.12;100.00;101173.41;5086023;28;20048;-77
2023/10/24 03:07:43;;;;;;;32.13;30.33;;;;;;;10.09;100.00;101170.13;5083103;28;20047;-79
2023/10/24 03:10:10;;;;;;;28.88;27.08;;;;;;;10.08;100.00;101167.69;5078749;28;20567;-78
2023/10/24 03:12:37;;;;;;;30.27;28.58;;;;;;;9.99;100.00;101163.53;5079459;28;20052;-77
2023/10/24 03:15:05;;;;;;;30.77;29.08;;;;;;;10.07;100.00;101166.84;5080408;28;20051;-78
2023/10/24 03:17:34;;;;;;;31.35;29.65;;;;;;;9.94;100.00;101174.69;5100372;28;20050;-76
2023/10/24 03:20:08;;;;;;;32.50;30.60;;;;;;;9.94;100.00;101166.72;5086693;28;20044;-76
2023/10/24 03:22:36;;;;;;;34.25;32.55;;;;;;;9.95;100.00;101170.19;5095010;28;20054;-75
2023/10/24 03:25:03;;;;;;;29.38;27.88;;;;;;;9.60;100.00;101170.91;5085901;28;20058;-76
2023/10/24 03:27:29;;;;;;;34.17;32.35;;;;;;;9.80;100.00;101175.56;5076454;28;20058;-77
2023/10/24 03:29:56;;;;;;;42.38;39.97;;;;;;;9.94;100.00;101181.84;5089920;28;20086;-77
2023/10/24 03:32:40;;;;;;;27.85;25.15;;;;;;;10.11;100.00;101183.22;5076927;28;20436;-76
2023/10/24 03:35:08;;;;;;;26.90;24.50;;;;;;;10.10;100.00;101189.53;5090322;28;20047;-76
2023/10/24 03:37:45;;;;;;;44.85;40.70;;;;;;;10.01;100.00;101186.16;5104448;28;20130;-76
2023/10/24 03:40:14;;;;;;;34.53;31.83;;;;;;;10.05;100.00;101189.28;5072199;28;20492;-77
2023/10/24 03:42:42;;;;;;;34.63;31.83;;;;;;;10.01;100.00;101188.00;5084986;28;20044;-77
2023/10/24 03:45:09;;;;;;;35.50;32.60;;;;;;;9.95;100.00;101188.78;5099377;28;20431;-76
2023/10/24 03:47:37;;;;;;;37.28;33.53;;;;;;;9.89;100.00;101195.66;5090785;28;20039;-77
2023/10/24 03:50:29;;;;;;;35.13;32.33;;;;;;;9.75;100.00;101196.56;5089030;28;20104;-77
2023/10/24 03:52:59;;;;;;;46.17;42.92;;;;;;;9.52;100.00;101186.09;5095208;28;20122;-77
2023/10/24 03:55:58;;;;;;;36.60;33.60;;;;;;;9.49;100.00;101189.94;5078649;28;20051;-76
2023/10/24 03:58:31;;;;;;;35.42;32.53;;;;;;;9.54;100.00;101189.41;5039144;28;20050;-79
2023/10/24 04:01:05;;;;;;;36.08;33.28;;;;;;;9.67;100.00;101186.88;5024390;28;20077;-78
2023/10/24 04:03:31;;;;;;;54.22;49.10;;;;;;;9.53;100.00;101182.44;5027465;28;20095;-76
2023/10/24 04:06:00;;;;;;;39.10;36.40;;;;;;;9.75;100.00;101189.41;5040454;28;20080;-76
2023/10/24 04:08:33;;;;;;;27.80;26.80;;;;;;;9.66;100.00;101195.03;5016567;28;20057;-78
2023/10/24 04:11:00;;;;;;;30.08;28.88;;;;;;;9.68;100.00;101199.13;5020193;28;20524;-77
2023/10/24 04:13:28;;;;;;;28.55;27.35;;;;;;;9.63;100.00;101202.34;5017369;28;20504;-77
2023/10/24 04:16:14;;;;;;;26.73;25.52;;;;;;;9.61;100.00;101204.34;5086607;28;20443;-77
2023/10/24 04:18:44;;;;;;;35.85;34.35;;;;;;;9.68;100.00;101206.25;5080324;28;20064;-76
2023/10/24 04:21:14;;;;;;;35.70;34.30;;;;;;;9.38;100.00;101203.72;5080985;28;20206;-77
2023/10/24 04:23:41;;;;;;;42.42;40.75;;;;;;;9.55;100.00;101204.28;5082879;28;20496;-76
2023/10/24 04:26:30;;;;;;;28.55;27.45;;;;;;;9.63;100.00;101209.50;5088175;28;20044;-78
2023/10/24 04:28:57;;;;;;;22.75;21.85;;;;;;;9.49;100.00;101213.00;5071338;28;20056;-77
2023/10/24 04:31:24;;;;;;;28.83;27.63;;;;;;;9.47;100.00;101212.34;5075557;28;20068;-77
2023/10/24 04:33:51;;;;;;;27.42;26.23;;;;;;;9.48;100.00;101217.47;5080484;28;20040;-77
2023/10/24 04:36:20;;;;;;;22.58;21.58;;;;;;;9.28;100.00;101222.53;5072090;28;20149;-77
2023/10/24 04:38:47;;;;;;;22.10;21.10;;;;;;;9.50;100.00;101226.09;5076914;28;20044;-77
2023/10/24 04:41:25;;;;;;;21.50;20.40;;;;;;;9.46;100.00;101226.63;5077376;28;20040;-76
2023/10/24 04:44:02;;;;;;;20.88;19.88;;;;;;;9.43;100.00;101217.22;5076616;28;20102;-78
2023/10/24 04:46:30;;;;;;;20.88;19.80;;;;;;;9.35;100.00;101223.44;5080533;28;20451;-77
2023/10/24 04:48:57;;;;;;;18.27;17.27;;;;;;;9.30;100.00;101217.06;5077922;28;20076;-78
2023/10/24 04:51:26;;;;;;;18.70;17.60;;;;;;;9.00;100.00;101222.38;5076559;28;20056;-77
2023/10/24 04:53:53;;;;;;;18.70;17.60;;;;;;;8.81;100.00;101218.44;5079512;28;20056;-77
2023/10/24 04:56:20;;;;;;;20.95;19.45;;;;;;;9.05;100.00;101213.91;5073184;28;20482;-77
2023/10/24 04:58:47;;;;;;;19.42;18.27;;;;;;;8.92;100.00;101220.63;5087657;28;20040;-77
2023/10/24 05:01:14;;;;;;;19.35;18.15;;;;;;;9.17;100.00;101223.84;5085172;28;20063;-77
2023/10/24 05:03:40;;;;;;;19.55;18.45;;;;;;;9.49;100.00;101231.56;5085112;28;20044;-78
2023/10/24 05:06:07;;;;;;;20.33;19.13;;;;;;;9.77;100.00;101236.97;5089068;28;20530;-79
2023/10/24 05:08:36;;;;;;;18.92;17.73;;;;;;;9.83;100.00;101237.06;5085181;28;20048;-78
2023/10/24 05:11:12;;;;;;;19.17;18.07;;;;;;;10.15;100.00;101245.53;4737825;28;10000599;-77
2023/10/24 05:13:38;;;;;;;20.85;19.75;;;;;;;10.24;100.00;101243.56;5085296;28;20044;-77
2023/10/24 05:16:05;;;;;;;21.40;20.20;;;;;;;10.46;100.00;101253.16;5079575;28;20048;-75
2023/10/24 05:18:34;;;;;;;24.23;22.33;;;;;;;10.55;100.00;101256.50;5075794;28;20040;-78
2023/10/24 05:21:05;;;;;;;20.85;19.65;;;;;;;10.54;100.00;101263.66;5078601;28;20432;-77
2023/10/24 05:23:32;;;;;;;19.80;18.80;;;;;;;10.62;100.00;101251.25;5094509;28;20062;-77
2023/10/24 05:26:03;;;;;;;20.30;19.20;;;;;;;10.74;100.00;101261.16;5084120;28;20048;-76
2023/10/24 05:28:32;;;;;;;20.13;18.92;;;;;;;17.92;100.00;101257.69;5082334;28;20439;-76
2023/10/24 05:30:59;;;;;;;22.80;21.50;;;;;;;19.55;100.00;101257.41;5075353;28;20049;-78
2023/10/24 05:33:25;;;;;;;23.35;21.85;;;;;;;15.60;100.00;101273.25;5084913;28;20055;-78
2023/10/24 05:35:53;;;;;;;22.55;21.15;;;;;;;18.62;100.00;101276.06;5088005;28;20056;-76
2023/10/24 05:38:21;;;;;;;23.67;22.27;;;;;;;12.97;100.00;101294.16;5081365;28;20504;-78
2023/10/24 05:40:47;;;;;;;28.20;26.80;;;;;;;12.16;100.00;101310.31;5074205;28;20044;-78
2023/10/24 05:43:16;;;;;;;29.63;28.13;;;;;;;12.10;100.00;101321.78;5099798;28;20048;-78
2023/10/24 05:45:51;;;;;;;29.42;27.92;;;;;;;12.23;100.00;101313.84;5096849;28;20052;-76
2023/10/24 05:48:18;;;;;;;29.90;28.50;;;;;;;12.08;100.00;101294.53;5090779;28;20040;-78
2023/10/24 05:50:53;;;;;;;28.48;27.08;;;;;;;12.24;100.00;101306.66;5091835;28;20040;-78
2023/10/24 05:53:20;;;;;;;22.25;21.05;;;;;;;12.17;100.00;101297.84;5096912;28;20074;-78
2023/10/24 05:55:47;;;;;;;20.63;19.42;;;;;;;12.31;100.00;101294.97;5112551;28;20059;-76
2023/10/24 05:58:19;;;;;;;22.42;21.23;;;;;;;12.53;100.00;101294.81;5090280;28;20050;-77
2023/10/24 06:00:45;;;;;;;23.38;22.08;;;;;;;12.83;100.00;101292.56;5085756;28;20488;-77
2023/10/24 06:03:14;;;;;;;23.75;22.35;;;;;;;13.16;100.00;101294.31;5080890;28;20438;-77
2023/10/24 06:05:52;;;;;;;22.10;20.90;;;;;;;13.67;100.00;101289.03;5084993;28;20062;-77
2023/10/24 06:08:21;;;;;;;24.10;22.80;;;;;;;13.97;100.00;101296.50;5087427;28;20531;-77
2023/10/24 09:24:18;;;;;;;23.90;22.10;;;;;;;26.35;100.00;101167.59;4764693;27;10001360;-74
2023/10/24 09:26:56;;;;;;;24.17;22.38;;;;;;;25.72;100.00;101167.06;5062191;28;20840;-77
2023/10/24 09:29:32;;;;;;;23.38;21.58;;;;;;;27.29;100.00;101158.06;5065125;28;20072;-77
2023/10/24 09:31:59;;;;;;;24.10;22.23;;;;;;;27.73;95.24;101159.22;5062853;28;20523;-77
2023/10/24 09:34:27;;;;;;;23.83;21.92;;;;;;;25.01;100.00;101158.00;5061524;28;20467;-77
2023/10/24 09:36:54;;;;;;;23.13;21.25;;;;;;;26.48;97.36;101151.28;5056728;28;20481;-77
2023/10/24 09:39:28;;;;;;;23.35;21.55;;;;;;;26.02;100.00;101145.88;5061199;28;20049;-77
2023/10/24 09:41:56;;;;;;;23.50;21.90;;;;;;;27.62;92.90;101155.94;5063093;28;20048;-73
2023/10/24 09:44:25;;;;;;;22.10;20.50;;;;;;;28.47;94.87;101134.94;5053421;28;20064;-74
2023/10/24 09:46:54;;;;;;;22.33;20.73;;;;;;;28.20;91.08;101137.81;5058250;28;20049;-74
2023/10/24 09:49:23;;;;;;;21.75;20.15;;;;;;;26.58;100.00;101139.41;5065753;28;20053;-73
2023/10/24 09:51:50;;;;;;;22.30;20.77;;;;;;;26.14;100.00;101132.59;5066939;28;20045;-74
2023/10/24 09:54:18;;;;;;;23.38;21.77;;;;;;;26.41;100.00;101126.38;5056828;28;20064;-74
2023/10/24 09:56:48;;;;;;;22.90;21.30;;;;;;;26.94;99.11;101133.22;5063918;28;20060;-74
2023/10/24 09:59:14;;;;;;;29.85;27.85;;;;;;;25.64;100.00;101123.41;5072450;28;20048;-74
2023/10/24 10:01:42;;;;;;;70.32;66.25;;;;;;;26.82;100.00;101120.13;5067380;28;20047;-74
2023/10/24 10:04:09;;;;;;;41.08;38.50;;;;;;;25.31;100.00;101121.44;5071603;28;20049;-73
2023/10/24 10:06:36;;;;;;;22.90;21.20;;;;;;;26.28;100.00;101106.19;5066633;28;20044;-74
2023/10/24 10:09:04;;;;;;;25.45;23.85;;;;;;;26.39;100.00;101103.28;5055295;28;20049;-73
2023/10/24 10:11:32;;;;;;;24.08;22.48;;;;;;;26.78;100.00;101097.31;5061681;28;20052;-73
2023/10/24 10:14:12;;;;;;;27.23;25.52;;;;;;;25.97;100.00;101095.09;5067480;28;20494;-77
2023/10/24 10:16:52;;;;;;;22.55;21.05;;;;;;;26.55;100.00;101098.38;5056067;28;20509;-77
2023/10/24 10:19:47;;;;;;;27.38;25.67;;;;;;;27.49;96.25;101092.16;5066336;28;20048;-77
2023/10/24 10:22:35;;;;;;;27.45;25.85;;;;;;;27.57;77.67;101083.22;5060536;28;20137;-77
2023/10/24 10:25:40;;;;;;;27.98;26.38;;;;;;;26.89;96.42;101089.72;5046415;28;20052;-77
2023/10/24 10:28:18;;;;;;;30.55;28.65;;;;;;;27.48;89.39;101085.09;5047440;28;20055;-77
2023/10/24 10:31:07;;;;;;;28.80;26.90;;;;;;;26.17;98.39;101087.63;5055367;28;20048;-77
2023/10/24 10:33:35;;;;;;;22.88;21.27;;;;;;;26.66;93.33;101086.94;5065023;28;20053;-77
2023/10/24 10:36:04;;;;;;;23.30;21.80;;;;;;;27.06;94.67;101086.34;5058376;28;20045;-77
2023/10/24 10:38:45;;;;;;;23.90;22.40;;;;;;;27.07;87.55;101085.22;5048110;28;21023;-78
2023/10/24 10:41:34;;;;;;;23.88;22.38;;;;;;;27.40;81.68;101086.63;5052491;28;20056;-77
2023/10/24 10:44:05;;;;;;;25.58;23.98;;;;;;;28.19;76.96;101073.44;5050776;28;20052;-77
2023/10/24 10:46:34;;;;;;;23.92;22.42;;;;;;;27.82;79.92;101079.06;5053964;28;20056;-77
2023/10/24 10:49:06;;;;;;;25.77;24.27;;;;;;;26.74;98.13;101077.25;5045609;28;20430;-77
2023/10/24 10:51:34;;;;;;;26.00;24.40;;;;;;;26.71;95.79;101069.69;5044175;28;20224;-78
2023/10/24 10:54:09;;;;;;;26.83;25.25;;;;;;;26.71;95.41;101064.22;5056572;28;20045;-74
2023/10/24 10:56:59;;;;;;;24.88;23.38;;;;;;;27.77;87.75;101064.69;5050596;28;20127;-78
2023/10/24 10:59:44;;;;;;;26.52;25.02;;;;;;;28.54;77.08;101050.56;5050373;28;20063;-78
2023/10/24 11:02:40;;;;;;;24.92;23.42;;;;;;;29.28;73.70;101056.22;5049116;28;20049;-77
2023/10/24 11:05:40;;;;;;;22.33;20.83;;;;;;;27.43;77.68;101043.50;5059537;28;20075;-77
2023/10/24 11:08:07;;;;;;;23.73;22.27;;;;;;;28.14;75.44;101043.53;5046658;28;20527;-77
2023/10/24 11:10:50;;;;;;;20.98;19.58;;;;;;;26.52;93.83;101048.03;5041577;28;20469;-77
2023/10/24 11:13:32;;;;;;;22.98;21.48;;;;;;;26.35;93.54;101037.72;5055927;28;20426;-78
2023/10/24 11:16:00;;;;;;;22.50;21.00;;;;;;;26.57;96.56;101030.78;5043628;28;20056;-77
2023/10/24 11:18:30;;;;;;;23.70;22.15;;;;;;;26.81;85.43;101033.22;5054904;28;20136;-77
2023/10/24 11:20:57;;;;;;;22.52;21.13;;;;;;;27.15;88.46;101014.44;5038417;28;20055;-73
2023/10/24 11:23:24;;;;;;;24.77;23.27;;;;;;;25.69;95.28;101025.38;5062114;28;20048;-74
2023/10/24 11:25:51;;;;;;;25.65;24.05;;;;;;;25.67;100.00;101033.06;5052726;28;20059;-73
2023/10/24 11:28:19;;;;;;;26.10;24.50;;;;;;;27.18;90.54;101026.66;5065047;28;20049;-74
2023/10/24 11:30:47;;;;;;;22.23;20.73;;;;;;;27.91;81.87;101018.25;5057203;28;20045;-73
2023/10/24 11:33:27;;;;;;;22.23;20.63;;;;;;;27.41;93.40;101019.25;5053989;28;20057;-73
2023/10/24 11:35:55;;;;;;;23.88;22.27;;;;;;;27.96;80.93;101012.63;5053874;28;20057;-74
2023/10/24 11:38:22;;;;;;;23.20;21.70;;;;;;;27.38;86.80;101003.50;5048434;28;20516;-74
2023/10/24 11:40:51;;;;;;;22.27;20.77;;;;;;;29.16;81.06;100997.53;5062321;28;20052;-77
2023/10/24 11:43:19;;;;;;;24.00;22.40;;;;;;;29.06;79.49;101000.59;5049621;28;20469;-78
2023/10/24 11:46:16;;;;;;;23.02;21.42;;;;;;;27.87;67.55;101004.44;5051294;28;20494;-77
2023/10/24 11:48:43;;;;;;;23.33;21.77;;;;;;;29.38;65.48;101002.00;5002847;28;20046;-78
2023/10/24 11:51:27;;;;;;;22.95;21.35;;;;;;;28.15;72.46;100996.81;5044075;28;20061;-74
2023/10/24 11:54:05;;;;;;;23.80;22.27;;;;;;;27.82;76.88;100997.19;5056227;28;20502;-74
2023/10/24 11:56:33;;;;;;;24.10;22.50;;;;;;;28.22;74.29;100988.94;5037218;28;20049;-74
2023/10/24 11:59:01;;;;;;;24.02;22.42;;;;;;;29.19;71.42;100980.47;5033382;28;20445;-73
2023/10/24 12:01:29;;;;;;;24.48;22.88;;;;;;;29.27;60.28;100978.06;5058272;28;20869;-73
2023/10/24 12:04:04;;;;;;;26.25;24.65;;;;;;;30.09;57.37;100984.97;5048253;28;20053;-73
2023/10/24 12:06:33;;;;;;;24.13;22.50;;;;;;;31.47;53.08;100968.50;5020360;28;20053;-74
2023/10/24 12:09:00;;;;;;;24.50;22.70;;;;;;;30.90;50.02;100971.97;5040921;28;20511;-74
2023/10/24 12:11:27;;;;;;;22.98;21.38;;;;;;;28.97;58.10;100970.50;5041409;28;20045;-74
2023/10/24 12:13:54;;;;;;;22.85;21.30;;;;;;;29.20;59.77;100973.09;5041648;28;20075;-73
2023/10/24 12:16:21;;;;;;;23.70;22.20;;;;;;;29.15;57.24;100963.09;5039049;28;20050;-77
2023/10/24 12:18:48;;;;;;;23.88;22.38;;;;;;;28.40;60.74;100959.72;5045497;28;20052;-77
2023/10/24 12:21:15;;;;;;;23.45;21.95;;;;;;;26.80;68.15;100960.78;5039435;28;20060;-76
2023/10/24 12:23:57;;;;;;;24.35;22.75;;;;;;;29.54;58.82;100947.53;5043343;28;20053;-77
2023/10/24 12:26:25;;;;;;;24.00;22.40;;;;;;;28.88;59.29;100947.84;5037118;28;20045;-77
2023/10/24 12:28:52;;;;;;;24.45;22.80;;;;;;;28.69;64.52;100952.88;5040637;28;20054;-77
2023/10/24 12:31:18;;;;;;;22.73;21.13;;;;;;;28.48;61.15;100945.31;5039372;28;20433;-77
2023/10/24 12:33:45;;;;;;;22.10;20.52;;;;;;;28.59;64.19;100950.44;5036268;28;20059;-77
2023/10/24 12:36:20;;;;;;;22.50;20.90;;;;;;;27.29;69.78;100940.75;5036913;28;20044;-77
2023/10/24 12:38:47;;;;;;;22.50;20.80;;;;;;;26.98;74.11;100931.72;5039682;28;20057;-77
2023/10/24 12:41:23;;;;;;;23.33;21.73;;;;;;;26.23;78.93;100937.53;5038609;28;20056;-77
2023/10/24 12:43:50;;;;;;;22.95;21.33;;;;;;;26.21;79.59;100937.03;5031584;28;20806;-76
2023/10/24 12:46:17;;;;;;;24.95;23.25;;;;;;;25.77;82.55;100927.56;5039915;28;20504;-77
2023/10/24 12:48:44;;;;;;;25.13;23.33;;;;;;;26.07;85.83;100932.72;5037002;28;20052;-77
2023/10/24 12:51:12;;;;;;;25.60;23.80;;;;;;;26.88;82.04;100927.34;5036717;28;20049;-77
2023/10/24 12:53:40;;;;;;;24.70;23.00;;;;;;;26.18;88.73;100928.69;5044843;28;20407;-77
2023/10/24 12:56:31;;;;;;;24.25;22.55;;;;;;;27.02;82.75;100929.97;5037575;28;20045;-77
2023/10/24 12:59:05;;;;;;;24.73;23.02;;;;;;;26.33;82.05;100931.06;5042568;28;20046;-77
2023/10/24 13:01:32;;;;;;;25.13;23.33;;;;;;;27.03;81.63;100909.81;5037381;28;20525;-77
2023/10/24 13:04:28;;;;;;;23.75;22.25;;;;;;;26.84;82.59;100918.16;5040871;28;20056;-77
2023/10/24 13:06:55;;;;;;;23.80;22.20;;;;;;;26.87;85.23;100912.94;5037454;28;20067;-77
2023/10/24 13:09:23;;;;;;;25.70;24.00;;;;;;;27.44;79.39;100908.75;5040546;28;20072;-77
2023/10/24 13:11:52;;;;;;;25.05;23.45;;;;;;;27.24;78.68;100902.72;5047791;28;20056;-76
2023/10/24 13:14:27;;;;;;;25.40;23.80;;;;;;;26.48;82.07;100898.03;5032031;28;20049;-76
2023/10/24 13:16:56;;;;;;;27.45;25.75;;;;;;;26.41;82.58;100905.00;5041062;28;20149;-77
2023/10/24 13:19:23;;;;;;;24.38;22.77;;;;;;;25.63;90.20;100904.19;5046620;28;20063;-77
2023/10/24 13:21:50;;;;;;;24.42;22.85;;;;;;;25.53;94.98;100900.56;5033851;28;20430;-76
2023/10/24 13:24:23;;;;;;;23.20;21.60;;;;;;;26.01;91.26;100888.47;5036359;28;20489;-76
2023/10/24 13:26:52;;;;;;;24.75;23.15;;;;;;;25.94;90.35;100886.19;5049466;28;20109;-77
2023/10/24 13:29:20;;;;;;;24.90;23.30;;;;;;;25.45;95.14;100895.84;5039494;28;20057;-77
2023/10/24 13:31:49;;;;;;;24.90;23.20;;;;;;;25.93;90.22;100884.59;5047101;28;20049;-77
2023/10/24 13:34:17;;;;;;;24.85;23.25;;;;;;;26.95;85.13;100887.63;5040559;28;20477;-77
2023/10/24 13:36:45;;;;;;;23.95;22.35;;;;;;;27.17;81.37;100875.09;5033867;28;20049;-77
2023/10/24 13:39:13;;;;;;;25.15;23.45;;;;;;;27.12;78.14;100886.13;5038830;28;20129;-77
2023/10/24 13:41:41;;;;;;;25.35;23.75;;;;;;;27.82;77.82;100877.13;5039861;28;20092;-77
2023/10/24 13:44:09;;;;;;;26.60;24.90;;;;;;;27.78;73.81;100878.09;5053457;28;20076;-77
2023/10/24 13:46:36;;;;;;;27.15;25.45;;;;;;;27.53;75.73;100882.31;5032276;28;20061;-77
2023/10/24 13:49:03;;;;;;;23.35;21.75;;;;;;;27.31;76.36;100875.00;5041360;28;20045;-76
2023/10/24 13:51:30;;;;;;;22.30;20.70;;;;;;;26.98;74.64;100863.59;5039390;28;20077;-73
2023/10/24 13:53:57;;;;;;;29.67;27.88;;;;;;;26.66;76.76;100866.31;5044019;28;20044;-74
2023/10/24 13:56:24;;;;;;;26.08;24.38;;;;;;;27.08;75.26;100871.50;5042867;28;20119;-74
2023/10/24 13:58:51;;;;;;;24.40;22.80;;;;;;;27.68;71.15;100870.16;5045634;28;20057;-74
2023/10/24 14:01:20;;;;;;;25.10;23.50;;;;;;;26.20;77.53;100877.44;5042462;28;20140;-73
2023/10/24 14:03:49;;;;;;;24.90;23.30;;;;;;;26.10;82.20;100873.03;5037981;28;20053;-74
2023/10/24 14:06:16;;;;;;;24.70;23.10;;;;;;;26.53;81.96;100863.66;5040760;28;20129;-74
2023/10/24 14:08:43;;;;;;;25.73;24.13;;;;;;;27.06;80.12;100854.66;5032222;28;20061;-74
2023/10/24 14:11:16;;;;;;;28.67;26.88;;;;;;;26.35;86.84;100855.31;5048063;28;20053;-74
2023/10/24 14:13:43;;;;;;;29.77;28.00;;;;;;;26.52;81.68;100851.16;5038625;28;20056;-74
2023/10/24 14:16:10;;;;;;;26.60;25.00;;;;;;;26.14;76.61;100846.81;5042571;28;20045;-74
2023/10/24 14:18:38;;;;;;;25.45;23.80;;;;;;;25.78;79.95;100860.38;5045495;28;20053;-74
2023/10/24 14:21:05;;;;;;;24.83;23.23;;;;;;;25.65;79.86;100853.03;5034211;28;20045;-74
2023/10/24 14:23:32;;;;;;;23.98;22.48;;;;;;;25.84;77.84;100859.22;5041959;28;20049;-74
2023/10/24 14:26:01;;;;;;;24.70;23.08;;;;;;;25.53;81.66;100857.06;5050590;28;20076;-73
2023/10/24 14:28:27;;;;;;;24.20;22.60;;;;;;;25.62;81.86;100856.38;5035937;28;20438;-73
2023/10/24 14:30:57;;;;;;;25.52;23.73;;;;;;;25.41;85.92;100853.25;5042511;28;20061;-73
2023/10/24 14:33:27;;;;;;;24.20;22.40;;;;;;;25.24;90.89;100838.38;5042731;28;20060;-73
2023/10/24 14:35:56;;;;;;;23.58;21.77;;;;;;;25.01;99.44;100842.03;5036258;28;20049;-73
2023/10/24 14:38:23;;;;;;;23.52;21.83;;;;;;;24.56;100.00;100837.09;5036583;28;20914;-74